Terminal Aerodrome Forecast
Issued by NWS

Home | Current Version | Previous Version | Text Only | Print | Product List | Glossary On
Versions: 1 2 3 4 5 6 7 8 9 10 11 12 13 14
000
FTUS45 KCYS 111120
TAFLAR
TAF
KLAR 111120Z 1112/1212 26012KT P6SM SKC
     FM111700 32015G25KT P6SM SKC
     FM120000 35008KT P6SM SKC
     FM120300 23008KT P6SM SKC=

USA.gov is the U.S. government's official web portal to all federal, state and local government web resources and services.